createdAt,value
2023-10-20T00:00:16.866Z,1.60
2023-10-20T00:02:45.189Z,1.43
2023-10-20T00:05:15.107Z,1.20
2023-10-20T00:07:44.754Z,1.70
2023-10-20T00:10:12.968Z,1.20
2023-10-20T00:12:41.540Z,1.63
2023-10-20T00:15:15.175Z,1.73
2023-10-20T00:17:44.226Z,1.90
2023-10-20T00:20:13.020Z,1.50
2023-10-20T00:22:42.672Z,2.10
2023-10-20T00:25:13.419Z,1.40
2023-10-20T00:27:42.462Z,1.77
2023-10-20T00:30:12.706Z,1.37
2023-10-20T00:32:42.380Z,1.57
2023-10-20T00:35:14.732Z,1.50
2023-10-20T00:37:43.490Z,1.23
2023-10-20T00:40:14.207Z,1.40
2023-10-20T00:42:42.586Z,1.63
2023-10-20T00:45:12.195Z,1.40
2023-10-20T00:47:41.826Z,1.53
2023-10-20T00:50:13.173Z,1.60
2023-10-20T00:52:43.955Z,1.70
2023-10-20T00:55:15.312Z,1.40
2023-10-20T00:57:45.751Z,1.27
2023-10-20T01:00:15.168Z,1.53
2023-10-20T01:02:43.686Z,1.37
2023-10-20T01:05:15.909Z,1.30
2023-10-20T01:07:44.852Z,1.50
2023-10-20T01:10:14.837Z,1.60
2023-10-20T01:12:43.136Z,1.70
2023-10-20T01:15:12.414Z,1.43
2023-10-20T01:17:41.573Z,2.00
2023-10-20T01:20:10.611Z,1.53
2023-10-20T01:22:39.031Z,1.20
2023-10-20T01:25:09.128Z,1.80
2023-10-20T01:27:37.408Z,1.63
2023-10-20T01:30:06.778Z,1.87
2023-10-20T01:32:36.771Z,1.93
2023-10-20T01:35:06.000Z,1.50
2023-10-20T01:37:34.179Z,1.57
2023-10-20T01:40:02.293Z,1.80
2023-10-20T01:42:32.020Z,2.00
2023-10-20T01:45:00.056Z,1.50
2023-10-20T01:47:28.532Z,2.10
2023-10-20T01:49:56.716Z,1.93
2023-10-20T01:52:25.142Z,1.60
2023-10-20T01:54:53.277Z,1.93
2023-10-20T01:57:21.855Z,1.47
2023-10-20T01:59:51.342Z,1.80
2023-10-20T02:02:19.677Z,2.10
2023-10-20T02:04:48.841Z,2.40
2023-10-20T02:07:17.233Z,1.93
2023-10-20T02:09:45.270Z,1.43
2023-10-20T02:12:14.711Z,1.30
2023-10-20T02:14:43.564Z,2.10
2023-10-20T02:17:14.228Z,1.70
2023-10-20T02:19:42.410Z,1.40
2023-10-20T02:22:10.499Z,1.80
2023-10-20T02:24:40.834Z,1.50
2023-10-20T02:27:10.515Z,1.60
2023-10-20T02:29:38.605Z,1.57
2023-10-20T02:32:07.138Z,1.60
2023-10-20T02:34:37.171Z,1.27
2023-10-20T02:37:05.352Z,1.77
2023-10-20T02:39:34.641Z,1.77
2023-10-20T02:42:02.735Z,2.17
2023-10-20T02:44:32.413Z,1.77
2023-10-20T02:47:00.727Z,1.50
2023-10-20T02:49:28.764Z,1.60
2023-10-20T02:51:58.537Z,1.50
2023-10-20T02:54:26.696Z,1.83
2023-10-20T02:56:57.754Z,2.00
2023-10-20T02:59:26.356Z,1.20
2023-10-20T03:01:55.262Z,1.47
2023-10-20T03:04:23.423Z,1.50
2023-10-20T03:06:51.572Z,1.60
2023-10-20T03:09:21.054Z,1.40
2023-10-20T03:11:49.133Z,1.43
2023-10-20T03:14:18.753Z,1.40
2023-10-20T03:16:47.017Z,1.70
2023-10-20T03:19:15.881Z,1.87
2023-10-20T03:21:43.955Z,1.33
2023-10-20T03:24:12.156Z,1.60
2023-10-20T03:26:42.884Z,1.50
2023-10-20T03:29:11.049Z,1.60
2023-10-20T03:31:39.185Z,1.40
2023-10-20T03:34:07.327Z,1.67
2023-10-20T03:36:35.427Z,1.43
2023-10-20T03:39:15.590Z,1.40
2023-10-20T03:41:45.079Z,1.50
2023-10-20T03:44:13.245Z,1.90
2023-10-20T03:46:49.295Z,1.90
2023-10-20T03:49:17.877Z,1.93
2023-10-20T03:51:50.496Z,1.50
2023-10-20T03:54:18.629Z,1.30
2023-10-20T03:56:48.086Z,1.67
2023-10-20T03:59:17.583Z,1.70
2023-10-20T04:01:45.823Z,1.63
2023-10-20T04:04:14.110Z,1.70
2023-10-20T04:06:42.240Z,1.13
2023-10-20T04:09:11.046Z,1.60
2023-10-20T04:11:39.794Z,2.40
2023-10-20T04:14:09.823Z,1.67
2023-10-20T04:16:41.173Z,1.50
2023-10-20T04:19:10.723Z,1.80
2023-10-20T04:21:39.988Z,1.33
2023-10-20T04:24:10.837Z,1.50
2023-10-20T04:26:39.526Z,1.80
2023-10-20T04:29:35.145Z,1.60
2023-10-20T04:32:21.222Z,1.17
2023-10-20T04:35:06.711Z,1.50
2023-10-20T04:37:54.299Z,1.60
2023-10-20T04:40:39.821Z,1.50
2023-10-20T04:43:21.845Z,1.50
2023-10-20T04:46:15.977Z,1.00
2023-10-20T04:49:15.861Z,1.27
2023-10-20T04:52:06.659Z,1.50
2023-10-20T04:54:46.170Z,1.83
2023-10-20T04:57:37.009Z,1.60
2023-10-20T05:00:19.552Z,1.73
2023-10-20T05:03:00.115Z,1.67
2023-10-20T05:05:34.916Z,1.53
2023-10-20T05:08:06.703Z,1.43
2023-10-20T05:10:34.942Z,1.60
2023-10-20T05:13:03.002Z,1.33
2023-10-20T05:15:33.544Z,1.50
2023-10-20T05:18:03.885Z,1.63
2023-10-20T05:20:32.084Z,1.60
2023-10-20T05:23:01.716Z,1.60
2023-10-20T05:25:29.738Z,1.47
2023-10-20T05:27:57.800Z,1.60
2023-10-20T05:30:25.932Z,1.30
2023-10-20T05:32:54.611Z,1.83
2023-10-20T05:35:24.117Z,2.00
2023-10-20T05:37:52.448Z,2.73
2023-10-20T05:40:20.434Z,1.73
2023-10-20T05:42:48.498Z,1.60
2023-10-20T05:45:22.135Z,1.47
2023-10-20T05:47:51.436Z,1.70
2023-10-20T05:50:19.726Z,1.90
2023-10-20T05:52:49.203Z,1.60
2023-10-20T05:55:17.644Z,1.93
2023-10-20T05:57:46.287Z,1.83
2023-10-20T06:00:16.459Z,1.80
2023-10-20T06:02:47.528Z,1.83
2023-10-20T06:05:16.168Z,1.53
2023-10-20T06:07:45.585Z,1.90
2023-10-20T06:10:15.121Z,1.77
2023-10-20T06:12:43.798Z,1.50
2023-10-20T06:15:12.226Z,1.67
2023-10-20T06:17:40.452Z,1.70
2023-10-20T06:20:10.754Z,1.30
2023-10-20T06:22:38.977Z,1.50
2023-10-20T06:25:13.315Z,1.40
2023-10-20T06:27:43.981Z,1.70
2023-10-20T06:30:24.181Z,1.57
2023-10-20T06:33:14.060Z,1.53
2023-10-20T06:35:52.104Z,1.40
2023-10-20T06:38:26.625Z,1.40
2023-10-20T06:40:55.135Z,1.50
2023-10-20T06:43:25.017Z,1.40
2023-10-20T06:46:00.395Z,1.50
2023-10-20T06:48:29.145Z,1.10
2023-10-20T06:50:58.399Z,1.33
2023-10-20T06:53:28.094Z,1.07
2023-10-20T06:56:13.129Z,1.43
2023-10-20T06:58:45.964Z,1.03
2023-10-20T07:01:14.500Z,1.40
2023-10-20T07:03:43.138Z,1.20
2023-10-20T07:06:12.572Z,1.30
2023-10-20T07:08:41.361Z,1.53
2023-10-20T07:11:09.622Z,1.03
2023-10-20T07:13:38.472Z,1.30
2023-10-20T07:16:08.357Z,1.20
2023-10-20T07:18:38.104Z,1.17
2023-10-20T07:21:06.538Z,1.40
2023-10-20T07:23:35.236Z,1.03
2023-10-20T07:26:03.682Z,1.17
2023-10-20T07:28:31.869Z,1.60
2023-10-20T07:31:00.160Z,1.30
2023-10-20T07:33:31.213Z,1.40
2023-10-20T07:36:00.782Z,1.57
2023-10-20T07:38:29.461Z,1.30
2023-10-20T07:40:57.688Z,1.43
2023-10-20T07:43:26.088Z,1.90
2023-10-20T07:45:54.552Z,1.30
2023-10-20T07:48:22.865Z,1.17
2023-10-20T07:50:53.753Z,1.17
2023-10-20T07:53:22.174Z,1.50
2023-10-20T07:55:50.364Z,1.20
2023-10-20T07:58:18.720Z,1.27
2023-10-20T08:00:47.199Z,1.47
2023-10-20T08:03:15.707Z,1.30
2023-10-20T08:05:44.420Z,1.00
2023-10-20T08:08:14.502Z,1.33
2023-10-20T08:10:43.551Z,1.47
2023-10-20T08:13:11.956Z,1.33
2023-10-20T08:15:41.635Z,1.43
2023-10-20T08:18:12.274Z,1.40
2023-10-20T08:20:41.123Z,1.13
2023-10-20T08:23:10.390Z,1.30
2023-10-20T08:25:42.187Z,1.00
2023-10-20T08:28:10.594Z,1.67
2023-10-20T08:30:38.821Z,1.70
2023-10-20T08:33:07.818Z,1.20
2023-10-20T08:35:37.011Z,1.10
2023-10-20T08:38:05.938Z,1.20
2023-10-20T08:41:01.245Z,1.10
2023-10-20T08:43:27.863Z,1.27
2023-10-20T08:45:57.064Z,1.50
2023-10-20T08:48:25.638Z,1.47
2023-10-20T08:50:55.778Z,1.50
2023-10-20T08:53:24.872Z,1.20
2023-10-20T08:55:53.424Z,1.13
2023-10-20T08:58:26.395Z,1.33
2023-10-20T09:00:59.074Z,1.13
2023-10-20T09:03:29.141Z,1.13
2023-10-20T09:06:06.610Z,1.47
2023-10-20T09:08:35.416Z,1.40
2023-10-20T09:11:04.063Z,1.37
2023-10-20T09:13:36.132Z,1.30
2023-10-20T09:16:08.960Z,0.80
2023-10-20T09:18:44.811Z,1.00
2023-10-20T09:21:15.467Z,0.97
2023-10-20T09:23:56.514Z,1.00
2023-10-20T09:26:25.779Z,1.57
2023-10-20T09:28:55.934Z,1.13
2023-10-20T09:31:28.383Z,1.30
2023-10-20T09:33:57.391Z,0.90
2023-10-20T09:36:26.191Z,1.30
2023-10-20T09:38:55.791Z,1.20
2023-10-20T09:41:25.332Z,1.23
2023-10-20T09:43:55.155Z,1.43
2023-10-20T09:46:41.563Z,1.20
2023-10-20T09:49:16.319Z,1.20
2023-10-20T09:51:49.619Z,1.23
2023-10-20T09:54:23.080Z,0.93
2023-10-20T09:56:51.705Z,1.47
2023-10-20T09:59:21.600Z,1.33
2023-10-20T10:01:51.475Z,1.23
2023-10-20T10:04:28.356Z,1.10
2023-10-20T10:06:57.863Z,1.70
2023-10-20T10:09:38.185Z,1.50
2023-10-20T10:12:11.507Z,1.40
2023-10-20T10:14:40.132Z,1.17
2023-10-20T10:17:12.060Z,1.30
2023-10-20T10:19:51.637Z,1.33
2023-10-20T10:22:24.910Z,1.10
2023-10-20T10:24:55.549Z,1.30
2023-10-20T10:27:27.619Z,0.93
2023-10-20T10:29:59.899Z,1.10
2023-10-20T10:32:33.821Z,0.97
2023-10-20T12:54:53.609Z,1.90
2023-10-20T12:57:22.134Z,1.90
2023-10-20T12:59:50.262Z,2.10
2023-10-20T13:02:18.566Z,2.53
2023-10-20T13:04:46.810Z,2.50
2023-10-20T13:07:15.249Z,2.10
2023-10-20T13:09:43.592Z,1.70
2023-10-20T13:12:13.189Z,2.00
2023-10-20T13:14:41.438Z,2.17
2023-10-20T13:17:09.734Z,2.33
2023-10-20T13:19:38.965Z,2.03
2023-10-20T13:22:07.190Z,1.67
2023-10-20T13:24:36.032Z,2.27
2023-10-20T13:27:04.628Z,1.93
2023-10-20T13:29:34.368Z,1.47
2023-10-20T13:32:02.764Z,2.20
2023-10-20T13:34:31.729Z,1.83
2023-10-20T13:37:00.006Z,1.47
2023-10-20T13:39:31.229Z,2.00
2023-10-20T13:41:59.987Z,2.23
2023-10-20T13:44:28.570Z,1.60
2023-10-20T13:46:58.550Z,1.63
2023-10-20T13:49:26.770Z,1.53
2023-10-20T13:51:54.920Z,1.40
2023-10-20T13:54:23.053Z,1.60
2023-10-20T13:56:51.535Z,1.60
2023-10-20T13:59:19.836Z,1.67
2023-10-20T14:01:48.037Z,1.93
2023-10-20T14:04:19.492Z,1.23
2023-10-20T14:06:48.033Z,1.10
2023-10-20T14:09:16.233Z,1.43
2023-10-20T14:11:44.496Z,1.50
2023-10-20T14:14:13.273Z,1.50
2023-10-20T14:16:41.676Z,1.10
2023-10-20T14:19:10.028Z,1.30
2023-10-20T14:21:39.665Z,1.20
2023-10-20T14:24:09.242Z,1.20
2023-10-20T14:26:37.497Z,1.53
2023-10-20T14:29:05.987Z,1.33
2023-10-20T14:31:34.296Z,1.30
2023-10-20T14:34:05.031Z,1.23
2023-10-20T14:36:34.126Z,1.30
2023-10-20T14:39:03.996Z,1.00
2023-10-20T14:41:32.161Z,1.57
2023-10-20T14:44:00.444Z,1.03
2023-10-20T14:46:28.587Z,0.90
2023-10-20T14:48:56.751Z,1.30
2023-10-20T14:51:24.973Z,1.10
2023-10-20T14:53:53.668Z,1.20
2023-10-20T14:56:23.424Z,1.30
2023-10-20T14:58:51.815Z,1.17
2023-10-20T15:58:00.933Z,1.50
2023-10-20T16:00:33.790Z,0.90
2023-10-20T16:03:02.803Z,0.97
2023-10-20T16:05:31.174Z,0.90
2023-10-20T16:07:59.674Z,1.20
2023-10-20T16:10:27.964Z,0.90
2023-10-20T16:12:56.824Z,1.17
2023-10-20T16:43:55.055Z,1.50
2023-10-20T16:50:46.794Z,1.90
2023-10-20T16:53:14.960Z,1.33
2023-10-20T16:55:43.300Z,1.60
2023-10-20T16:58:11.610Z,1.57
2023-10-20T17:00:41.169Z,1.13
2023-10-20T17:03:09.530Z,1.67
2023-10-20T17:05:38.942Z,1.70
2023-10-20T17:08:07.844Z,1.57
2023-10-20T17:10:40.572Z,1.20
2023-10-20T17:13:08.854Z,1.63
2023-10-20T17:15:37.019Z,1.17
2023-10-20T17:18:09.762Z,1.33
2023-10-20T17:20:41.555Z,1.30
2023-10-20T17:23:10.426Z,1.27
2023-10-20T17:25:39.436Z,1.33
2023-10-20T17:28:07.767Z,1.23
2023-10-20T17:30:38.511Z,1.50
2023-10-20T17:33:09.460Z,1.30
2023-10-20T17:35:38.064Z,1.70
2023-10-20T17:38:06.517Z,1.20
2023-10-20T17:40:36.799Z,1.40
2023-10-20T17:43:05.357Z,1.30
2023-10-20T17:45:33.704Z,1.20
2023-10-20T17:48:02.996Z,1.47
2023-10-20T17:50:38.613Z,0.80
2023-10-20T17:53:08.667Z,1.13
2023-10-20T17:55:42.148Z,1.27
2023-10-20T17:58:10.802Z,1.00
2023-10-20T18:00:40.972Z,1.23
2023-10-20T18:03:09.745Z,1.27
2023-10-20T18:05:39.466Z,1.23
2023-10-20T18:08:08.135Z,1.27
2023-10-20T18:10:36.761Z,1.40
2023-10-20T18:13:05.394Z,1.10
2023-10-20T18:15:37.293Z,1.37
2023-10-20T18:18:06.061Z,1.33
2023-10-20T18:20:34.346Z,1.10
2023-10-20T18:23:05.148Z,1.03
2023-10-20T18:25:33.416Z,1.43
2023-10-20T18:28:01.972Z,1.20
2023-10-20T18:30:30.815Z,1.20
2023-10-20T18:32:59.115Z,1.10
2023-10-20T18:35:27.371Z,1.20
2023-10-20T18:37:57.716Z,1.57
2023-10-20T18:40:27.313Z,1.00
2023-10-20T18:43:05.337Z,1.13
2023-10-20T18:45:33.587Z,1.10
2023-10-20T18:48:02.357Z,1.10
2023-10-20T18:50:31.381Z,1.50
2023-10-20T18:52:59.745Z,1.40
2023-10-20T18:55:29.452Z,1.30
2023-10-20T18:57:58.159Z,1.40
2023-10-20T19:00:28.425Z,1.20
2023-10-20T19:02:57.287Z,1.00
2023-10-20T19:05:25.590Z,1.00
2023-10-20T19:07:54.453Z,1.13
2023-10-20T19:10:23.237Z,1.10
2023-10-20T19:12:52.917Z,1.00
2023-10-20T19:15:21.252Z,1.20
2023-10-20T19:17:49.700Z,1.40
2023-10-20T19:20:18.034Z,1.00
2023-10-20T19:22:46.264Z,1.10
2023-10-20T19:25:14.870Z,1.20
2023-10-20T19:27:44.454Z,1.57
2023-10-20T19:30:15.008Z,1.00
2023-10-20T19:32:43.385Z,1.37
2023-10-20T19:35:11.679Z,1.40
2023-10-20T19:37:39.870Z,1.00
2023-10-20T19:40:09.207Z,1.57
2023-10-20T19:42:38.979Z,1.20
2023-10-20T19:45:11.493Z,1.23
2023-10-20T19:47:41.260Z,1.50
2023-10-20T19:50:11.210Z,0.80
2023-10-20T19:52:39.477Z,1.50
2023-10-20T19:55:08.245Z,1.00
2023-10-20T19:57:36.574Z,0.90
2023-10-20T20:00:05.514Z,1.30
2023-10-20T20:02:42.485Z,0.83
2023-10-20T20:05:10.979Z,1.20
2023-10-20T20:07:39.193Z,0.87
2023-10-20T20:10:08.760Z,1.20
2023-10-20T20:12:37.565Z,1.00
2023-10-20T20:15:07.793Z,1.23
2023-10-20T20:17:36.194Z,1.10
2023-10-20T20:20:06.643Z,0.97
2023-10-20T20:22:35.576Z,1.13
2023-10-20T20:25:03.944Z,1.00
2023-10-20T20:27:32.506Z,1.10
2023-10-20T20:30:00.815Z,0.97
2023-10-20T20:32:29.155Z,1.30
2023-10-20T20:34:57.423Z,1.07
2023-10-20T20:37:27.044Z,0.90
2023-10-20T20:39:55.220Z,1.20
2023-10-20T20:42:23.647Z,0.90
2023-10-20T20:44:51.849Z,0.83
2023-10-20T20:47:20.487Z,0.87
2023-10-20T20:49:48.658Z,1.00
2023-10-20T20:52:17.450Z,1.17
2023-10-20T20:54:47.433Z,1.10
2023-10-20T20:57:15.703Z,1.00
2023-10-20T20:59:44.036Z,0.83
2023-10-20T21:02:12.401Z,0.93
2023-10-20T21:04:40.729Z,0.80
2023-10-20T21:07:09.818Z,0.97
2023-10-20T21:09:37.984Z,1.10
2023-10-20T21:12:08.574Z,0.83
2023-10-20T21:14:36.919Z,1.00
2023-10-20T21:17:05.333Z,1.10
2023-10-20T21:19:35.428Z,1.00
2023-10-20T21:22:04.097Z,1.00
2023-10-20T21:24:32.990Z,0.70
2023-10-20T21:27:01.268Z,1.00
2023-10-20T21:29:30.967Z,1.23
2023-10-20T21:31:58.203Z,1.27
2023-10-20T21:34:26.476Z,0.93
2023-10-20T21:36:55.391Z,1.00
2023-10-20T21:39:24.281Z,1.10
2023-10-20T21:41:52.616Z,1.20
2023-10-20T21:44:20.840Z,0.80
2023-10-20T21:46:50.604Z,1.30
2023-10-20T21:49:18.848Z,0.67
2023-10-20T21:51:47.069Z,0.80
2023-10-20T21:54:15.323Z,1.00
2023-10-20T21:56:43.544Z,0.83
2023-10-20T21:59:11.776Z,1.07
2023-10-20T22:01:39.955Z,1.30
2023-10-20T22:04:12.266Z,1.00
2023-10-20T22:06:40.562Z,0.90
2023-10-20T22:09:09.662Z,0.77
2023-10-20T22:11:37.975Z,0.80
2023-10-20T22:14:06.334Z,0.90
2023-10-20T22:16:34.583Z,1.07
2023-10-20T22:19:02.838Z,1.30
2023-10-20T22:21:32.425Z,0.93
2023-10-20T22:24:00.643Z,1.00
2023-10-20T22:26:28.872Z,0.87
2023-10-20T22:28:57.526Z,0.80
2023-10-20T22:31:25.960Z,1.20
2023-10-20T22:33:54.402Z,0.70
2023-10-20T22:36:22.678Z,0.93
2023-10-20T22:38:52.327Z,0.77
2023-10-20T22:41:20.751Z,0.97
2023-10-20T22:43:48.960Z,0.90
2023-10-20T22:46:17.160Z,1.00
2023-10-20T22:48:45.424Z,0.63
2023-10-20T22:51:14.633Z,0.80
2023-10-20T22:53:43.072Z,0.80
2023-10-20T22:56:12.637Z,0.97
2023-10-20T22:58:40.771Z,0.90
2023-10-20T23:01:08.957Z,0.80
2023-10-20T23:03:37.517Z,0.90
2023-10-20T23:06:06.162Z,0.90
2023-10-20T23:08:34.615Z,0.90
2023-10-20T23:11:02.895Z,0.90
2023-10-20T23:13:32.562Z,0.93
2023-10-20T23:16:00.822Z,1.00
2023-10-20T23:18:29.196Z,1.10
2023-10-20T23:20:57.552Z,0.80
2023-10-20T23:23:26.946Z,0.80
2023-10-20T23:25:56.248Z,1.03
2023-10-20T23:28:24.496Z,1.30
2023-10-20T23:30:54.163Z,1.13
2023-10-20T23:33:22.627Z,1.43
2023-10-20T23:35:51.041Z,0.90
2023-10-20T23:38:19.302Z,1.40
2023-10-20T23:40:50.085Z,1.47
2023-10-20T23:43:18.340Z,1.23
2023-10-20T23:45:46.889Z,1.20
2023-10-20T23:48:16.755Z,1.30
2023-10-20T23:50:45.129Z,1.20
2023-10-20T23:53:13.300Z,1.10
2023-10-20T23:55:41.483Z,1.30
2023-10-20T23:58:09.708Z,1.23
